Wetterdaten: Woche 18.03.13 - 24.03.13 (KW12)
Datum Zeit Temperatur Luftfeuchte Luftdruck Niederschlag Windrichtung Sonnenschein Solar Wind
18.03.2013 00:00 5,1 C 64 % 996,6 hPa 0,0 l/m N 0,00 h 0 W/m 0,7 km/h (0 Bft)
18.03.2013 01:00 4,2 C 68 % 996,2 hPa 0,0 l/m W 0,00 h 0 W/m 1,1 km/h (0 Bft)
18.03.2013 02:00 4,0 C 73 % 995,8 hPa 0,0 l/m N-NW 0,00 h 0 W/m 6,2 km/h (2 Bft)
18.03.2013 03:00 4,3 C 77 % 995,4 hPa 0,0 l/m N-NW 0,00 h 0 W/m 4,8 km/h (1 Bft)
18.03.2013 04:00 4,2 C 79 % 995,5 hPa 0,0 l/m N-NO 0,00 h 0 W/m 7,1 km/h (2 Bft)
18.03.2013 05:00 3,8 C 83 % 995,3 hPa 0,0 l/m N-NO 0,00 h 0 W/m 8,7 km/h (2 Bft)
18.03.2013 06:00 3,3 C 88 % 995,1 hPa 0,0 l/m N 0,00 h 5 W/m 3,6 km/h (1 Bft)
18.03.2013 07:00 2,8 C 90 % 994,8 hPa 0,2 l/m N-NO 0,00 h 13 W/m 2,4 km/h (1 Bft)
18.03.2013 08:00 2,6 C 91 % 994,1 hPa 0,8 l/m N-NO 0,00 h 33 W/m 4,3 km/h (1 Bft)
18.03.2013 09:00 2,4 C 94 % 993,1 hPa 0,4 l/m NO 0,00 h 59 W/m 5,2 km/h (1 Bft)
18.03.2013 10:00 2,6 C 95 % 992,6 hPa 0,6 l/m O-NO 0,00 h 52 W/m 6,0 km/h (2 Bft)
18.03.2013 11:00 2,4 C 94 % 992,1 hPa 1,6 l/m O-NO 0,00 h 64 W/m 4,3 km/h (1 Bft)
18.03.2013 12:00 2,0 C 95 % 991,8 hPa 1,0 l/m N 0,00 h 72 W/m 2,0 km/h (1 Bft)
18.03.2013 13:00 2,0 C 96 % 991,3 hPa 0,8 l/m NO 0,00 h 106 W/m 3,1 km/h (1 Bft)
18.03.2013 14:00 2,6 C 96 % 991,1 hPa 0,2 l/m NO 0,00 h 129 W/m 3,2 km/h (1 Bft)
18.03.2013 15:00 3,3 C 95 % 990,7 hPa 0,2 l/m W-NW 0,00 h 125 W/m 6,1 km/h (2 Bft)
18.03.2013 16:00 3,5 C 94 % 990,7 hPa 0,2 l/m W-NW 0,00 h 53 W/m 3,6 km/h (1 Bft)
18.03.2013 17:00 3,4 C 94 % 991,1 hPa 0,2 l/m W-NW 0,00 h 26 W/m 6,1 km/h (2 Bft)
18.03.2013 18:00 3,0 C 94 % 991,7 hPa 0,8 l/m W 0,00 h 5 W/m 9,9 km/h (2 Bft)
18.03.2013 19:00 2,8 C 95 % 992,6 hPa 0,2 l/m W 0,00 h 0 W/m 8,4 km/h (2 Bft)
18.03.2013 20:00 2,6 C 95 % 993,3 hPa 0,0 l/m W 0,00 h 0 W/m 6,8 km/h (2 Bft)
18.03.2013 21:00 2,2 C 95 % 993,8 hPa 0,0 l/m W 0,00 h 0 W/m 8,6 km/h (2 Bft)
18.03.2013 22:00 2,2 C 95 % 994,0 hPa 0,0 l/m W 0,00 h 0 W/m 7,2 km/h (2 Bft)
18.03.2013 23:00 2,2 C 95 % 994,1 hPa 0,0 l/m W 0,00 h 0 W/m 13,0 km/h (3 Bft)
19.03.2013 00:00 1,6 C 94 % 994,4 hPa 0,0 l/m W-SW 0,00 h 0 W/m 15,4 km/h (3 Bft)
19.03.2013 01:00 1,2 C 95 % 994,9 hPa 0,0 l/m W-SW 0,00 h 0 W/m 11,1 km/h (2 Bft)
19.03.2013 02:00 1,7 C 95 % 995,4 hPa 0,0 l/m W-SW 0,00 h 0 W/m 15,2 km/h (3 Bft)
19.03.2013 03:00 2,1 C 93 % 995,9 hPa 0,0 l/m W-SW 0,00 h 0 W/m 18,1 km/h (3 Bft)
19.03.2013 04:00 2,0 C 93 % 996,7 hPa 0,0 l/m W-SW 0,00 h 0 W/m 18,1 km/h (3 Bft)
19.03.2013 05:00 1,8 C 92 % 997,6 hPa 0,0 l/m W-SW 0,00 h 0 W/m 18,5 km/h (3 Bft)
19.03.2013 06:00 1,8 C 93 % 998,5 hPa 0,0 l/m W-SW 0,00 h 9 W/m 16,8 km/h (3 Bft)
19.03.2013 07:00 1,9 C 93 % 999,5 hPa 0,0 l/m W-SW 0,00 h 38 W/m 20,9 km/h (4 Bft)
19.03.2013 08:00 2,3 C 92 % 1000,3 hPa 0,0 l/m W 0,00 h 51 W/m 22,2 km/h (4 Bft)
19.03.2013 09:00 3,1 C 89 % 1001,1 hPa 0,0 l/m W-SW 0,00 h 160 W/m 25,9 km/h (4 Bft)
19.03.2013 10:00 4,8 C 78 % 1001,6 hPa 0,0 l/m W 0,83 h 580 W/m 34,2 km/h (5 Bft)
19.03.2013 11:00 5,6 C 69 % 1002,0 hPa 0,0 l/m W 0,17 h 293 W/m 29,9 km/h (5 Bft)
19.03.2013 12:00 6,0 C 61 % 1002,3 hPa 0,0 l/m W-SW 0,00 h 184 W/m 30,0 km/h (5 Bft)
19.03.2013 13:00 6,0 C 67 % 1002,2 hPa 0,0 l/m W-SW 0,33 h 337 W/m 25,1 km/h (4 Bft)
19.03.2013 14:00 6,1 C 68 % 1002,0 hPa 0,0 l/m W-SW 0,17 h 219 W/m 22,4 km/h (4 Bft)
19.03.2013 15:00 7,0 C 62 % 1001,6 hPa 0,0 l/m SW 0,33 h 262 W/m 29,0 km/h (5 Bft)
19.03.2013 16:00 7,4 C 60 % 1001,3 hPa 0,0 l/m W-SW 0,92 h 317 W/m 20,8 km/h (4 Bft)
19.03.2013 17:00 7,1 C 58 % 1001,3 hPa 0,0 l/m W-SW 0,75 h 134 W/m 18,5 km/h (3 Bft)
19.03.2013 18:00 6,0 C 60 % 1001,5 hPa 0,0 l/m W 0,00 h 14 W/m 10,1 km/h (2 Bft)
19.03.2013 19:00 4,6 C 67 % 1001,9 hPa 0,0 l/m W 0,00 h 0 W/m 4,4 km/h (1 Bft)
19.03.2013 20:00 3,1 C 73 % 1002,0 hPa 0,0 l/m W 0,00 h 0 W/m 4,9 km/h (1 Bft)
19.03.2013 21:00 1,9 C 77 % 1002,3 hPa 0,0 l/m W 0,00 h 0 W/m 3,2 km/h (1 Bft)
19.03.2013 22:00 0,9 C 80 % 1002,5 hPa 0,0 l/m W 0,00 h 0 W/m 1,6 km/h (1 Bft)
19.03.2013 23:00 -0,1 C 83 % 1002,5 hPa 0,0 l/m N 0,00 h 0 W/m 1,3 km/h (1 Bft)
20.03.2013 00:00 -0,7 C 86 % 1002,8 hPa 0,0 l/m N 0,00 h 0 W/m 0,3 km/h (0 Bft)
20.03.2013 01:00 -0,8 C 87 % 1002,6 hPa 0,0 l/m N 0,00 h 0 W/m 0,5 km/h (0 Bft)
20.03.2013 02:00 -1,0 C 89 % 1002,5 hPa 0,0 l/m N 0,00 h 0 W/m 0,0 km/h (0 Bft)
20.03.2013 03:00 -1,3 C 89 % 1002,1 hPa 0,0 l/m N 0,00 h 0 W/m 0,1 km/h (0 Bft)
20.03.2013 04:00 -1,4 C 91 % 1002,0 hPa 0,0 l/m N 0,00 h 0 W/m 0,7 km/h (0 Bft)
20.03.2013 05:00 -1,3 C 92 % 1002,0 hPa 0,0 l/m N 0,00 h 0 W/m 0,8 km/h (0 Bft)
20.03.2013 06:00 -1,0 C 93 % 1002,1 hPa 0,0 l/m N 0,00 h 9 W/m 0,8 km/h (0 Bft)
20.03.2013 07:00 -0,4 C 94 % 1002,4 hPa 0,0 l/m W 0,00 h 30 W/m 2,8 km/h (1 Bft)
20.03.2013 08:00 1,3 C 89 % 1002,0 hPa 0,0 l/m S-SW 0,00 h 93 W/m 5,2 km/h (1 Bft)
20.03.2013 09:00 3,3 C 81 % 1002,0 hPa 0,0 l/m S-SW 0,42 h 276 W/m 4,4 km/h (1 Bft)
20.03.2013 10:00 7,1 C 66 % 1002,1 hPa 0,0 l/m S 1,00 h 528 W/m 11,3 km/h (2 Bft)
20.03.2013 11:00 9,1 C 55 % 1002,4 hPa 0,0 l/m W-SW 0,83 h 493 W/m 17,0 km/h (3 Bft)
20.03.2013 12:00 8,7 C 55 % 1003,3 hPa 0,0 l/m W-NW 0,08 h 134 W/m 26,1 km/h (4 Bft)
20.03.2013 13:00 6,3 C 77 % 1004,3 hPa 0,2 l/m W-SW 0,00 h 141 W/m 32,5 km/h (5 Bft)
20.03.2013 14:00 5,3 C 87 % 1004,8 hPa 0,0 l/m SW 0,00 h 188 W/m 25,2 km/h (4 Bft)
20.03.2013 15:00 5,8 C 83 % 1005,1 hPa 0,2 l/m W 0,00 h 114 W/m 20,2 km/h (4 Bft)
20.03.2013 16:00 5,9 C 81 % 1005,6 hPa 0,0 l/m W-SW 0,00 h 81 W/m 18,9 km/h (3 Bft)
20.03.2013 17:00 6,2 C 74 % 1006,2 hPa 0,0 l/m W-SW 0,08 h 53 W/m 15,3 km/h (3 Bft)
20.03.2013 18:00 5,2 C 70 % 1007,3 hPa 0,0 l/m W 0,25 h 18 W/m 22,1 km/h (4 Bft)
20.03.2013 19:00 4,2 C 75 % 1008,0 hPa 0,0 l/m W 0,00 h 0 W/m 18,8 km/h (3 Bft)
20.03.2013 20:00 3,7 C 77 % 1008,6 hPa 0,0 l/m SW 0,00 h 0 W/m 15,3 km/h (3 Bft)
20.03.2013 21:00 3,1 C 80 % 1009,5 hPa 0,0 l/m SW 0,00 h 0 W/m 17,7 km/h (3 Bft)
20.03.2013 22:00 2,9 C 83 % 1010,0 hPa 0,0 l/m W 0,00 h 0 W/m 16,2 km/h (3 Bft)
20.03.2013 23:00 2,9 C 84 % 1010,6 hPa 0,0 l/m W 0,00 h 0 W/m 16,1 km/h (3 Bft)
21.03.2013 00:00 2,8 C 86 % 1011,4 hPa 0,0 l/m W-SW 0,00 h 0 W/m 19,3 km/h (3 Bft)
21.03.2013 01:00 2,7 C 87 % 1012,3 hPa 0,0 l/m W-SW 0,00 h 0 W/m 14,5 km/h (3 Bft)
21.03.2013 02:00 2,7 C 88 % 1012,8 hPa 0,0 l/m W-SW 0,00 h 0 W/m 15,0 km/h (3 Bft)
21.03.2013 03:00 2,6 C 87 % 1013,2 hPa 0,0 l/m W 0,00 h 0 W/m 16,2 km/h (3 Bft)
21.03.2013 04:00 2,5 C 85 % 1013,9 hPa 0,0 l/m W-SW 0,00 h 0 W/m 15,8 km/h (3 Bft)
21.03.2013 05:00 2,3 C 84 % 1014,4 hPa 0,0 l/m W-SW 0,00 h 0 W/m 15,2 km/h (3 Bft)
21.03.2013 06:00 2,2 C 81 % 1014,7 hPa 0,0 l/m W 0,00 h 8 W/m 12,9 km/h (3 Bft)
21.03.2013 07:00 2,3 C 82 % 1015,2 hPa 0,0 l/m W 0,00 h 40 W/m 11,4 km/h (2 Bft)
21.03.2013 08:00 2,6 C 81 % 1015,7 hPa 0,0 l/m W-NW 0,00 h 61 W/m 9,4 km/h (2 Bft)
21.03.2013 09:00 3,4 C 77 % 1016,0 hPa 0,0 l/m W-NW 0,00 h 171 W/m 14,4 km/h (3 Bft)
21.03.2013 10:00 4,2 C 65 % 1016,1 hPa 0,0 l/m W-NW 0,00 h 151 W/m 15,4 km/h (3 Bft)
21.03.2013 11:00 4,8 C 61 % 1016,0 hPa 0,0 l/m W-NW 0,17 h 320 W/m 18,0 km/h (3 Bft)
21.03.2013 12:00 5,0 C 61 % 1016,1 hPa 0,0 l/m W-NW 0,00 h 151 W/m 9,8 km/h (2 Bft)
21.03.2013 13:00 5,8 C 59 % 1016,0 hPa 0,0 l/m W-NW 0,25 h 331 W/m 9,5 km/h (2 Bft)
21.03.2013 14:00 7,3 C 55 % 1015,5 hPa 0,0 l/m W-NW 0,83 h 507 W/m 16,1 km/h (3 Bft)
21.03.2013 15:00 7,6 C 54 % 1015,3 hPa 0,0 l/m W 0,67 h 333 W/m 13,4 km/h (3 Bft)
21.03.2013 16:00 7,0 C 55 % 1015,1 hPa 0,0 l/m W-NW 0,17 h 125 W/m 8,3 km/h (2 Bft)
21.03.2013 17:00 6,6 C 56 % 1015,0 hPa 0,0 l/m N-NO 0,00 h 35 W/m 3,2 km/h (1 Bft)
21.03.2013 18:00 6,2 C 65 % 1015,2 hPa 0,0 l/m N-NO 0,00 h 10 W/m 3,5 km/h (1 Bft)
21.03.2013 19:00 5,3 C 70 % 1015,2 hPa 0,0 l/m O-NO 0,00 h 0 W/m 3,1 km/h (1 Bft)
21.03.2013 20:00 4,4 C 76 % 1015,2 hPa 0,0 l/m N 0,00 h 0 W/m 0,9 km/h (0 Bft)
21.03.2013 21:00 3,6 C 79 % 1015,2 hPa 0,0 l/m N 0,00 h 0 W/m 0,5 km/h (0 Bft)
21.03.2013 22:00 2,5 C 80 % 1015,0 hPa 0,0 l/m N 0,00 h 0 W/m 0,7 km/h (0 Bft)
21.03.2013 23:00 1,1 C 83 % 1015,0 hPa 0,0 l/m N 0,00 h 0 W/m 1,3 km/h (1 Bft)
22.03.2013 00:00 0,4 C 87 % 1015,0 hPa 0,0 l/m O 0,00 h 0 W/m 2,1 km/h (1 Bft)
22.03.2013 01:00 0,2 C 88 % 1015,0 hPa 0,0 l/m N 0,00 h 0 W/m 0,8 km/h (0 Bft)
22.03.2013 02:00 -0,0 C 88 % 1014,9 hPa 0,0 l/m N 0,00 h 0 W/m 2,3 km/h (1 Bft)
22.03.2013 03:00 -0,7 C 89 % 1014,6 hPa 0,0 l/m N 0,00 h 0 W/m 1,3 km/h (1 Bft)
22.03.2013 04:00 -1,3 C 90 % 1014,4 hPa 0,0 l/m O 0,00 h 0 W/m 2,9 km/h (1 Bft)
22.03.2013 05:00 -1,7 C 92 % 1014,2 hPa 0,0 l/m O 0,00 h 0 W/m 1,9 km/h (1 Bft)
22.03.2013 06:00 -2,1 C 92 % 1014,1 hPa 0,0 l/m O-NO 0,00 h 16 W/m 2,1 km/h (1 Bft)
22.03.2013 07:00 -1,3 C 94 % 1014,3 hPa 0,0 l/m O-NO 0,25 h 94 W/m 4,0 km/h (1 Bft)
22.03.2013 08:00 0,6 C 92 % 1014,0 hPa 0,0 l/m NO 1,00 h 267 W/m 8,2 km/h (2 Bft)
22.03.2013 09:00 2,7 C 85 % 1013,6 hPa 0,0 l/m NO 1,00 h 440 W/m 11,4 km/h (2 Bft)
22.03.2013 10:00 5,2 C 74 % 1013,1 hPa 0,0 l/m O-NO 1,00 h 576 W/m 15,7 km/h (3 Bft)
22.03.2013 11:00 7,0 C 64 % 1012,5 hPa 0,0 l/m NO 1,00 h 673 W/m 18,1 km/h (3 Bft)
22.03.2013 12:00 8,5 C 57 % 1011,8 hPa 0,0 l/m O-NO 1,00 h 703 W/m 18,9 km/h (3 Bft)
22.03.2013 13:00 9,2 C 54 % 1011,1 hPa 0,0 l/m O-NO 1,00 h 680 W/m 19,0 km/h (3 Bft)
22.03.2013 14:00 10,1 C 53 % 1010,1 hPa 0,0 l/m O-NO 1,00 h 602 W/m 18,6 km/h (3 Bft)
22.03.2013 15:00 10,1 C 52 % 1009,5 hPa 0,0 l/m NO 1,00 h 453 W/m 20,1 km/h (4 Bft)
22.03.2013 16:00 9,4 C 55 % 1009,4 hPa 0,0 l/m O 1,00 h 320 W/m 22,1 km/h (4 Bft)
22.03.2013 17:00 8,2 C 58 % 1009,2 hPa 0,0 l/m O 0,50 h 106 W/m 19,4 km/h (3 Bft)
22.03.2013 18:00 6,8 C 62 % 1009,3 hPa 0,0 l/m O-NO 0,00 h 16 W/m 19,8 km/h (4 Bft)
22.03.2013 19:00 5,3 C 65 % 1009,7 hPa 0,0 l/m O-NO 0,00 h 0 W/m 19,8 km/h (4 Bft)
22.03.2013 20:00 4,1 C 67 % 1009,7 hPa 0,0 l/m O-NO 0,00 h 0 W/m 18,1 km/h (3 Bft)
22.03.2013 21:00 3,4 C 68 % 1009,6 hPa 0,0 l/m O-NO 0,00 h 0 W/m 17,0 km/h (3 Bft)
22.03.2013 22:00 2,8 C 70 % 1009,4 hPa 0,0 l/m O-NO 0,00 h 0 W/m 14,5 km/h (3 Bft)
22.03.2013 23:00 2,2 C 71 % 1009,4 hPa 0,0 l/m O-NO 0,00 h 0 W/m 15,8 km/h (3 Bft)
23.03.2013 00:00 1,6 C 72 % 1009,4 hPa 0,0 l/m NO 0,00 h 0 W/m 15,2 km/h (3 Bft)
23.03.2013 01:00 1,0 C 74 % 1009,2 hPa 0,0 l/m NO 0,00 h 0 W/m 16,9 km/h (3 Bft)
23.03.2013 02:00 0,2 C 77 % 1009,0 hPa 0,0 l/m O-NO 0,00 h 0 W/m 15,3 km/h (3 Bft)
23.03.2013 03:00 -0,4 C 81 % 1008,7 hPa 0,0 l/m O-NO 0,00 h 0 W/m 14,4 km/h (3 Bft)
23.03.2013 04:00 -0,8 C 83 % 1008,8 hPa 0,0 l/m NO 0,00 h 0 W/m 15,7 km/h (3 Bft)
23.03.2013 05:00 -1,1 C 84 % 1009,3 hPa 0,0 l/m O-NO 0,00 h 0 W/m 13,3 km/h (3 Bft)
23.03.2013 06:00 -1,4 C 82 % 1009,9 hPa 0,0 l/m O-NO 0,00 h 12 W/m 15,3 km/h (3 Bft)
23.03.2013 07:00 -1,3 C 81 % 1010,2 hPa 0,0 l/m O 0,00 h 53 W/m 15,2 km/h (3 Bft)
23.03.2013 08:00 -0,9 C 79 % 1010,5 hPa 0,0 l/m O-NO 0,00 h 90 W/m 15,2 km/h (3 Bft)
23.03.2013 09:00 -0,3 C 77 % 1010,7 hPa 0,0 l/m O-NO 0,17 h 176 W/m 12,5 km/h (3 Bft)
23.03.2013 10:00 0,8 C 73 % 1010,9 hPa 0,0 l/m O-NO 0,58 h 338 W/m 16,2 km/h (3 Bft)
23.03.2013 11:00 1,9 C 71 % 1010,8 hPa 0,0 l/m O-SO 0,00 h 236 W/m 16,5 km/h (3 Bft)
23.03.2013 12:00 2,8 C 69 % 1010,7 hPa 0,0 l/m NO 0,42 h 335 W/m 17,7 km/h (3 Bft)
23.03.2013 13:00 3,4 C 67 % 1010,3 hPa 0,0 l/m O-NO 0,42 h 385 W/m 17,6 km/h (3 Bft)
23.03.2013 14:00 4,3 C 66 % 1009,9 hPa 0,0 l/m O-NO 0,50 h 354 W/m 18,0 km/h (3 Bft)
23.03.2013 15:00 4,4 C 67 % 1009,6 hPa 0,0 l/m O-NO 0,17 h 215 W/m 18,0 km/h (3 Bft)
23.03.2013 16:00 3,6 C 69 % 1009,7 hPa 0,0 l/m O 0,00 h 73 W/m 21,4 km/h (4 Bft)
23.03.2013 17:00 2,7 C 71 % 1009,7 hPa 0,0 l/m O 0,00 h 27 W/m 18,6 km/h (3 Bft)
23.03.2013 18:00 1,7 C 74 % 1010,0 hPa 0,0 l/m O 0,00 h 6 W/m 18,0 km/h (3 Bft)
23.03.2013 19:00 1,0 C 77 % 1010,4 hPa 0,0 l/m NO 0,00 h 0 W/m 15,7 km/h (3 Bft)
23.03.2013 20:00 0,6 C 78 % 1010,6 hPa 0,0 l/m O-NO 0,00 h 0 W/m 16,2 km/h (3 Bft)
23.03.2013 21:00 0,1 C 79 % 1010,7 hPa 0,0 l/m O 0,00 h 0 W/m 17,0 km/h (3 Bft)
23.03.2013 22:00 -0,2 C 80 % 1010,4 hPa 0,0 l/m O-NO 0,00 h 0 W/m 18,6 km/h (3 Bft)
23.03.2013 23:00 -0,3 C 80 % 1010,2 hPa 0,0 l/m O-NO 0,00 h 0 W/m 16,5 km/h (3 Bft)
24.03.2013 00:00 -0,3 C 78 % 1010,1 hPa 0,0 l/m O-NO 0,00 h 0 W/m 16,5 km/h (3 Bft)
24.03.2013 01:00 -0,4 C 75 % 1009,8 hPa 0,0 l/m O 0,00 h 0 W/m 18,4 km/h (3 Bft)
24.03.2013 02:00 -0,7 C 78 % 1009,3 hPa 0,0 l/m O-NO 0,00 h 0 W/m 18,5 km/h (3 Bft)
24.03.2013 03:00 -1,1 C 79 % 1009,1 hPa 0,0 l/m O-NO 0,00 h 0 W/m 17,3 km/h (3 Bft)
24.03.2013 04:00 -1,4 C 80 % 1009,0 hPa 0,0 l/m O-NO 0,00 h 0 W/m 18,9 km/h (3 Bft)
24.03.2013 05:00 -1,7 C 82 % 1008,4 hPa 0,0 l/m O-NO 0,00 h 0 W/m 19,2 km/h (3 Bft)
24.03.2013 06:00 -1,9 C 83 % 1008,6 hPa 0,0 l/m O-NO 0,00 h 7 W/m 20,1 km/h (4 Bft)
24.03.2013 07:00 -2,1 C 82 % 1008,8 hPa 0,0 l/m O-NO 0,00 h 27 W/m 22,0 km/h (4 Bft)
24.03.2013 08:00 -2,1 C 80 % 1008,7 hPa 0,0 l/m O 0,00 h 78 W/m 21,8 km/h (4 Bft)
24.03.2013 09:00 -1,5 C 76 % 1008,6 hPa 0,0 l/m O 0,25 h 249 W/m 21,9 km/h (4 Bft)
24.03.2013 10:00 0,1 C 69 % 1008,2 hPa 0,0 l/m O 0,42 h 372 W/m 25,9 km/h (4 Bft)
24.03.2013 11:00 0,3 C 67 % 1008,0 hPa 0,0 l/m O-SO 0,00 h 262 W/m 24,3 km/h (4 Bft)
24.03.2013 12:00 1,0 C 66 % 1007,7 hPa 0,0 l/m O-NO 0,08 h 301 W/m 25,6 km/h (4 Bft)
24.03.2013 13:00 1,9 C 64 % 1007,2 hPa 0,0 l/m O 0,67 h 464 W/m 25,6 km/h (4 Bft)
24.03.2013 14:00 2,3 C 64 % 1006,7 hPa 0,0 l/m O 0,50 h 344 W/m 26,0 km/h (4 Bft)
24.03.2013 15:00 1,9 C 66 % 1006,8 hPa 0,0 l/m O 0,00 h 156 W/m 22,8 km/h (4 Bft)
24.03.2013 16:00 1,4 C 67 % 1007,0 hPa 0,0 l/m O 0,00 h 72 W/m 22,2 km/h (4 Bft)
24.03.2013 17:00 1,0 C 68 % 1006,9 hPa 0,0 l/m O-NO 0,00 h 22 W/m 21,3 km/h (4 Bft)
24.03.2013 18:00 0,8 C 70 % 1006,9 hPa 0,0 l/m O-NO 0,00 h 7 W/m 20,8 km/h (4 Bft)
24.03.2013 19:00 0,5 C 73 % 1007,4 hPa 0,0 l/m O-NO 0,00 h 0 W/m 19,3 km/h (3 Bft)
24.03.2013 20:00 -0,3 C 82 % 1007,5 hPa 0,0 l/m O-NO 0,00 h 0 W/m 20,5 km/h (4 Bft)
24.03.2013 21:00 -1,1 C 88 % 1007,4 hPa 0,0 l/m O-NO 0,00 h 0 W/m 12,7 km/h (3 Bft)
24.03.2013 22:00 -1,5 C 90 % 1007,2 hPa 0,2 l/m O 0,00 h 0 W/m 17,4 km/h (3 Bft)
24.03.2013 23:00 -1,7 C 92 % 1006,8 hPa 0,6 l/m O-NO 0,00 h 0 W/m 13,4 km/h (3 Bft)
Min-Datum _ 22.03.13 20.03.13 18.03.13 - - - - 18.03.13
_ Min-Zeit 06:35 12:20 15:30 - - - - 00:00
Minimum _ -2,2 C 51 % 990,5 hPa - - - - 0,0 km/h (0 Bft)
Max-Datum _ 22.03.13 18.03.13 21.03.13 18.03.13 - 19.03.13 19.03.13 19.03.13
_ Max-Zeit 14:50 09:50 13:00 11:00 - 10:00 13:50 10:55
Maximum _ 10,5 C 100 % 1016,3 hPa 1,6 l/m - 0,08 h 800 W/m 45,1 km/h
W-SW (6 Bft)
Durchschnitt _ 2,6 C 78 % 1006,1 hPa #8,4 l/m O-NO #22:10 h 191 W/m 13,5 km/h (3 Bft)